Airfield :
LOGIN :

Register | Disclaimer

   EN    FR    IT 

 










Legend :    VFR   Marginal VFR   IFR   Intensive IFR   Very Intensive IFR
Visi :
Ceiling :
>= 8 km
>= 3000ft
5 to 8 km
1000 to 3000 ft
1500m to 5 km
500 to 1000 ft
800 to 1500m
200 to 500 ft
< 800m
< 200 ft
Symbols :   Thunderstorms  Fog  Heavy snow  Heavy precipitations  Wind > 20 kt
SIGMETs :     Misc.  Thunderstorms  Icing  Turbulence  Mountain Waves  Volcanic Ashes







- Airport Elevation : 512 ft
- IATA code : URO
- Download approach charts


LFOP - Rouen Vallée de Seine

CURRENT METAR :
  • 182100Z AUTO 27010KT 250V320 9999 FEW014 BKN020 BKN050 09/07 Q1021 TEMPO 2000 RA BKN003 OVC013TCU

EXPIRED METARs :
  • 182030Z AUTO 27011KT 9999 BKN013 BKN027 BKN032 08/06 Q1021 TEMPO 2000 RA BKN003 OVC013TCU
  • 182000Z AUTO 26010KT 9999 FEW023 SCT033 BKN043 08/06 Q1022 TEMPO 2000 RA BKN003 OVC013TCU
  • 181930Z AUTO 26010KT 9999 OVC022 08/06 Q1022 TEMPO 2000 RA BKN003 OVC013TCU
  • 181900Z AUTO 27012KT 9999 -RA FEW025 BKN038 BKN068 08/06 Q1022 TEMPO 2000 RA BKN003 OVC013TCU
  • 181830Z AUTO 26012KT 9999 BKN040 OVC068 08/05 Q1022 TEMPO 2000 RA BKN003 OVC013TCU

TAF AMD TAF LFOP
Valid from the 18 at 18:00 until the 19 at 18:00 UTC


181830Z 1818/1918 25010KT 9999 OVC025
BECMG 1818/1821 OVC013
TEMPO 1820/1902 2000 RA BKN003 OVC013TCU
BECMG 1902/1904 35010KT SCT030
ATIS : +33 2 35 80 80 34
Met : +33 2 32 86 52 80
No reported NOTAMs for that airfield.
1 SIGMET reported for the Paris FIR (LFFF) :
 
Severe icing
LFFF SIGMET 1 VALID 182100/190100 LFPW
LFFF PARIS FIR/UIR SEV ICE OBS WI N5045 E00315 - N4930 E00600 - N4915 E00515 - N5000 E00300 FL080/220 MOV SE 20KT NC=



MET'MAP, your aeronautical weather chart ! - Copyright ORBIFLY December 2007 - Disclaimer

ORBIFLY MET'MAP TEAM :

Programming & Development : Alexandra Zaïnal
Concept & Development : Baudouin d'Aumeries
Co-Development & Prog : Marc-Olivier Méhu
Technical & hardware support : Manuel Goepfert

Contact : metmap@orbifly.com




SOURCES & CREDITS :

   NOAA